createdAt,value
2019-02-27T00:00:32.316Z,9.78
2019-02-27T00:03:05.754Z,10.85
2019-02-27T00:05:38.848Z,11.55
2019-02-27T00:08:10.079Z,10.35
2019-02-27T00:10:41.743Z,8.93
2019-02-27T00:13:13.065Z,10.28
2019-02-27T00:15:44.331Z,9.68
2019-02-27T00:18:15.885Z,8.95
2019-02-27T00:20:47.158Z,9.45
2019-02-27T00:23:18.364Z,9.65
2019-02-27T00:25:49.933Z,12.00
2019-02-27T00:28:23.343Z,11.57
2019-02-27T00:30:55.543Z,8.23
2019-02-27T00:33:28.620Z,11.83
2019-02-27T00:35:59.704Z,9.45
2019-02-27T00:38:30.899Z,10.48
2019-02-27T00:41:02.109Z,9.93
2019-02-27T00:43:33.342Z,7.40
2019-02-27T00:46:04.625Z,8.48
2019-02-27T00:48:35.863Z,8.55
2019-02-27T00:51:09.639Z,11.08
2019-02-27T00:53:39.958Z,10.88
2019-02-27T00:56:12.162Z,12.47
2019-02-27T00:58:44.421Z,9.75
2019-02-27T01:01:15.704Z,9.20
2019-02-27T01:03:47.192Z,9.50
2019-02-27T01:06:18.673Z,9.88
2019-02-27T01:08:49.876Z,8.83
2019-02-27T01:11:21.256Z,8.73
2019-02-27T01:13:52.416Z,9.78
2019-02-27T01:16:23.911Z,10.38
2019-02-27T01:18:54.930Z,9.55
2019-02-27T01:21:26.055Z,10.25
2019-02-27T01:23:57.253Z,11.95
2019-02-27T01:26:30.823Z,11.60
2019-02-27T01:29:01.607Z,9.40
2019-02-27T01:31:33.164Z,8.25
2019-02-27T01:34:04.494Z,11.68
2019-02-27T01:36:35.774Z,8.40
2019-02-27T01:39:08.965Z,10.58
2019-02-27T01:41:41.710Z,10.72
2019-02-27T01:44:13.695Z,8.98
2019-02-27T01:46:45.496Z,7.90
2019-02-27T01:49:16.950Z,9.25
2019-02-27T01:51:48.188Z,9.28
2019-02-27T01:54:19.278Z,9.05
2019-02-27T01:56:50.495Z,8.68
2019-02-27T01:59:22.188Z,10.28
2019-02-27T02:01:53.313Z,11.18
2019-02-27T02:04:24.550Z,10.40
2019-02-27T02:06:55.740Z,10.78
2019-02-27T02:09:37.779Z,11.78
2019-02-27T02:12:19.541Z,8.18
2019-02-27T02:15:16.779Z,9.33
2019-02-27T02:18:51.049Z,8.70
2019-02-27T02:22:25.726Z,8.88
2019-02-27T02:25:38.651Z,8.83
2019-02-27T02:29:34.168Z,9.53
2019-02-27T02:32:30.637Z,10.85
2019-02-27T02:35:23.217Z,11.00
2019-02-27T02:38:52.969Z,9.48
2019-02-27T02:42:32.540Z,9.68
2019-02-27T02:45:33.072Z,9.58
2019-02-27T02:48:51.799Z,8.23
2019-02-27T02:52:22.278Z,9.80
2019-02-27T02:55:21.548Z,10.00
2019-02-27T02:58:36.334Z,9.78
2019-02-27T03:01:25.169Z,9.50
2019-02-27T03:04:47.885Z,10.32
2019-02-27T03:08:04.182Z,10.05
2019-02-27T03:11:34.114Z,10.93
2019-02-27T03:14:30.203Z,9.93
2019-02-27T03:17:56.534Z,8.60
2019-02-27T03:20:52.410Z,9.13
2019-02-27T03:24:27.911Z,10.38
2019-02-27T03:27:49.120Z,10.95
2019-02-27T03:31:03.303Z,11.40
2019-02-27T03:34:48.155Z,10.53
2019-02-27T03:38:07.212Z,9.98
2019-02-27T03:41:43.045Z,11.12
2019-02-27T03:45:09.717Z,10.13
2019-02-27T03:48:14.321Z,8.28
2019-02-27T03:51:38.559Z,8.90
2019-02-27T03:55:01.026Z,10.82
2019-02-27T03:58:05.452Z,9.73
2019-02-27T04:01:08.224Z,10.75
2019-02-27T04:04:35.321Z,12.07
2019-02-27T04:08:43.602Z,12.28
2019-02-27T04:11:10.806Z,13.30
2019-02-27T04:13:41.840Z,12.53
2019-02-27T04:16:13.231Z,11.00
2019-02-27T04:18:44.396Z,10.80
2019-02-27T04:21:15.692Z,13.80
2019-02-27T04:23:49.011Z,11.12
2019-02-27T04:26:19.802Z,17.62
2019-02-27T04:28:50.881Z,11.83
2019-02-27T04:31:22.168Z,11.53
2019-02-27T04:33:59.743Z,11.00
2019-02-27T04:36:27.190Z,13.62
2019-02-27T04:39:00.063Z,13.70
2019-02-27T04:41:31.586Z,9.73
2019-02-27T04:44:06.070Z,12.75
2019-02-27T04:46:36.568Z,11.48
2019-02-27T04:49:07.836Z,13.08
2019-02-27T04:51:38.960Z,9.43
2019-02-27T04:54:10.049Z,9.65
2019-02-27T04:56:41.319Z,11.73
2019-02-27T04:59:12.490Z,12.58
2019-02-27T05:01:43.974Z,12.40
2019-02-27T05:04:15.341Z,12.25
2019-02-27T05:06:47.800Z,8.55
2019-02-27T05:09:19.984Z,10.32
2019-02-27T05:11:51.153Z,10.75
2019-02-27T05:14:22.241Z,12.70
2019-02-27T05:16:53.441Z,12.75
2019-02-27T05:19:24.849Z,16.07
2019-02-27T05:21:56.120Z,11.05
2019-02-27T05:24:27.647Z,11.60
2019-02-27T05:27:00.845Z,11.95
2019-02-27T05:29:31.573Z,13.13
2019-02-27T05:32:02.797Z,12.82
2019-02-27T05:34:33.908Z,11.53
2019-02-27T05:37:05.956Z,11.08
2019-02-27T05:39:37.599Z,13.43
2019-02-27T05:42:08.795Z,14.73
2019-02-27T05:44:39.836Z,10.72
2019-02-27T05:47:11.693Z,11.90
2019-02-27T05:49:43.326Z,11.97
2019-02-27T05:52:15.102Z,12.75
2019-02-27T05:54:46.323Z,10.48
2019-02-27T05:57:18.006Z,14.58
2019-02-27T05:59:49.052Z,15.05
2019-02-27T06:02:20.241Z,14.28
2019-02-27T06:04:51.273Z,15.15
2019-02-27T06:07:22.372Z,15.25
2019-02-27T06:09:53.526Z,11.48
2019-02-27T06:12:24.584Z,12.15
2019-02-27T06:14:55.777Z,13.32
2019-02-27T06:17:27.300Z,11.97
2019-02-27T06:19:58.462Z,11.63
2019-02-27T06:22:30.380Z,13.50
2019-02-27T06:25:02.241Z,12.98
2019-02-27T06:27:33.580Z,11.15
2019-02-27T06:30:05.752Z,14.60
2019-02-27T06:32:36.881Z,12.13
2019-02-27T06:35:08.882Z,15.75
2019-02-27T06:37:40.157Z,15.98
2019-02-27T06:40:13.450Z,19.65
2019-02-27T06:42:44.729Z,36.13
2019-02-27T06:45:16.877Z,34.10
2019-02-27T06:47:48.150Z,18.30
2019-02-27T06:50:19.449Z,20.05
2019-02-27T06:52:50.888Z,14.28
2019-02-27T06:55:22.072Z,19.87
2019-02-27T06:57:53.303Z,19.42
2019-02-27T07:00:24.467Z,17.25
2019-02-27T07:02:56.221Z,15.08
2019-02-27T07:05:27.446Z,18.02
2019-02-27T07:07:58.538Z,13.80
2019-02-27T07:10:29.729Z,20.27
2019-02-27T07:13:00.799Z,17.87
2019-02-27T07:15:32.261Z,14.55
2019-02-27T07:18:06.132Z,18.20
2019-02-27T07:20:37.012Z,15.25
2019-02-27T07:23:08.264Z,16.90
2019-02-27T07:25:42.031Z,15.55
2019-02-27T07:28:12.243Z,16.15
2019-02-27T07:30:43.328Z,14.20
2019-02-27T07:33:14.384Z,16.82
2019-02-27T07:35:45.668Z,19.48
2019-02-27T07:38:21.433Z,15.83
2019-02-27T07:40:51.228Z,12.60
2019-02-27T07:43:23.424Z,15.55
2019-02-27T07:45:54.738Z,14.35
2019-02-27T07:48:25.830Z,14.70
2019-02-27T07:50:57.508Z,12.28
2019-02-27T07:53:28.717Z,16.07
2019-02-27T07:56:00.065Z,14.93
2019-02-27T07:58:33.679Z,14.65
2019-02-27T08:01:04.716Z,19.42
2019-02-27T08:03:36.034Z,19.35
2019-02-27T08:06:07.165Z,17.85
2019-02-27T08:08:38.315Z,22.35
2019-02-27T08:11:13.423Z,19.80
2019-02-27T08:13:42.428Z,17.98
2019-02-27T08:16:13.611Z,17.45
2019-02-27T08:18:44.852Z,16.02
2019-02-27T08:21:15.882Z,16.12
2019-02-27T08:23:47.108Z,13.43
2019-02-27T08:26:18.548Z,12.30
2019-02-27T08:28:49.904Z,13.40
2019-02-27T08:31:22.215Z,12.45
2019-02-27T08:33:53.299Z,13.85
2019-02-27T08:36:24.609Z,12.85
2019-02-27T08:38:55.739Z,14.35
2019-02-27T08:41:29.156Z,13.32
2019-02-27T08:43:59.779Z,15.43
2019-02-27T08:46:31.015Z,13.65
2019-02-27T08:49:02.765Z,13.00
2019-02-27T08:51:33.799Z,12.15
2019-02-27T08:54:04.956Z,13.50
2019-02-27T08:56:36.143Z,10.85
2019-02-27T08:59:07.386Z,13.78
2019-02-27T09:01:38.658Z,13.72
2019-02-27T09:04:12.238Z,12.47
2019-02-27T09:06:42.570Z,13.35
2019-02-27T09:09:15.053Z,13.03
2019-02-27T09:11:46.718Z,14.15
2019-02-27T09:14:17.911Z,14.20
2019-02-27T09:16:49.108Z,16.32
2019-02-27T09:19:20.841Z,15.93
2019-02-27T09:21:52.126Z,12.63
2019-02-27T09:24:23.782Z,13.43
2019-02-27T09:26:54.896Z,12.40
2019-02-27T09:29:26.183Z,14.63
2019-02-27T09:31:57.328Z,13.43
2019-02-27T09:34:28.513Z,12.60
2019-02-27T09:37:00.756Z,14.13
2019-02-27T09:39:32.298Z,16.20
2019-02-27T09:42:03.556Z,13.45
2019-02-27T09:44:36.627Z,16.12
2019-02-27T09:47:07.940Z,14.00
2019-02-27T09:49:40.786Z,15.20
2019-02-27T09:52:13.315Z,13.00
2019-02-27T09:54:46.919Z,14.28
2019-02-27T09:57:17.599Z,14.95
2019-02-27T09:59:51.153Z,13.13
2019-02-27T10:02:21.706Z,12.75
2019-02-27T10:04:52.822Z,11.60
2019-02-27T10:07:24.782Z,13.43
2019-02-27T10:09:55.939Z,15.65
2019-02-27T10:12:27.839Z,16.15
2019-02-27T10:14:59.057Z,13.08
2019-02-27T10:17:30.253Z,12.63
2019-02-27T10:20:02.424Z,12.03
2019-02-27T10:22:34.511Z,13.50
2019-02-27T10:25:08.627Z,16.35
2019-02-27T10:27:38.870Z,14.65
2019-02-27T10:30:11.736Z,9.98
2019-02-27T10:32:43.228Z,8.90
2019-02-27T10:35:16.471Z,9.83
2019-02-27T10:37:50.461Z,10.88
2019-02-27T10:40:20.864Z,10.43
2019-02-27T10:42:52.135Z,9.30
2019-02-27T10:45:23.336Z,9.95
2019-02-27T10:47:54.579Z,8.90
2019-02-27T10:50:25.696Z,6.92
2019-02-27T10:52:57.229Z,8.80
2019-02-27T10:55:28.424Z,12.50
2019-02-27T10:58:00.028Z,6.58
2019-02-27T11:00:31.889Z,12.82
2019-02-27T11:03:03.703Z,7.22
2019-02-27T11:05:35.419Z,6.47
2019-02-27T11:08:07.187Z,6.53
2019-02-27T11:10:38.303Z,6.80
2019-02-27T11:13:09.471Z,4.85
2019-02-27T11:15:41.543Z,5.75
2019-02-27T11:18:13.815Z,5.72
2019-02-27T11:20:45.099Z,9.05
2019-02-27T11:23:16.576Z,5.22
2019-02-27T11:25:47.829Z,5.67
2019-02-27T11:28:19.316Z,4.58
2019-02-27T11:30:51.138Z,5.67
2019-02-27T11:33:25.888Z,5.55
2019-02-27T11:35:55.417Z,7.70
2019-02-27T11:38:26.920Z,6.30
2019-02-27T11:40:58.051Z,6.00
2019-02-27T11:43:29.820Z,5.12
2019-02-27T11:46:01.110Z,6.12
2019-02-27T11:48:32.286Z,4.45
2019-02-27T11:51:03.640Z,3.50
2019-02-27T11:53:35.859Z,3.17
2019-02-27T11:56:08.340Z,5.15
2019-02-27T11:58:39.568Z,5.65
2019-02-27T12:01:12.212Z,4.20
2019-02-27T12:03:46.031Z,3.83
2019-02-27T12:06:16.402Z,3.22
2019-02-27T12:08:47.411Z,3.87
2019-02-27T12:11:18.659Z,5.30
2019-02-27T12:13:50.185Z,2.77
2019-02-27T12:16:21.250Z,3.72
2019-02-27T12:18:52.356Z,4.03
2019-02-27T12:21:25.421Z,3.85
2019-02-27T12:23:56.646Z,3.12
2019-02-27T12:26:27.760Z,3.08
2019-02-27T12:28:58.920Z,3.33
2019-02-27T12:31:30.109Z,1.87
2019-02-27T12:34:03.303Z,3.87
2019-02-27T12:36:34.072Z,3.62
2019-02-27T12:39:06.466Z,4.00
2019-02-27T12:41:38.336Z,4.28
2019-02-27T12:44:09.613Z,2.45
2019-02-27T12:46:40.845Z,3.50
2019-02-27T12:49:11.944Z,3.90
2019-02-27T12:51:43.079Z,2.08
2019-02-27T12:54:14.121Z,1.98
2019-02-27T12:56:45.245Z,2.87
2019-02-27T12:59:16.463Z,2.27
2019-02-27T13:01:50.697Z,4.72
2019-02-27T13:04:20.962Z,3.27
2019-02-27T13:06:52.441Z,3.67
2019-02-27T13:09:24.542Z,2.83
2019-02-27T13:11:56.333Z,1.90
2019-02-27T13:14:27.484Z,3.60
2019-02-27T13:16:58.773Z,2.25
2019-02-27T13:19:30.025Z,1.98
2019-02-27T13:22:01.795Z,3.40
2019-02-27T13:24:33.249Z,2.17
2019-02-27T13:27:08.981Z,2.12
2019-02-27T13:29:37.896Z,2.45
2019-02-27T13:32:09.051Z,2.65
2019-02-27T13:34:40.209Z,3.33
2019-02-27T13:37:11.290Z,2.15
2019-02-27T13:39:43.375Z,3.67
2019-02-27T13:42:18.418Z,2.92
2019-02-27T13:44:47.580Z,3.52
2019-02-27T13:47:18.732Z,2.70
2019-02-27T13:49:49.932Z,3.02
2019-02-27T13:52:21.048Z,3.62
2019-02-27T13:54:52.088Z,2.70
2019-02-27T13:57:25.726Z,2.90
2019-02-27T13:59:55.983Z,2.62
2019-02-27T14:02:27.176Z,2.72
2019-02-27T14:05:00.643Z,2.65
2019-02-27T14:07:31.263Z,1.70
2019-02-27T14:10:02.403Z,2.10
2019-02-27T14:12:36.449Z,2.02
2019-02-27T14:15:09.355Z,2.70
2019-02-27T14:17:42.267Z,1.65
2019-02-27T14:20:17.168Z,2.22
2019-02-27T14:22:48.407Z,2.37
2019-02-27T14:25:22.271Z,2.27
2019-02-27T14:27:53.480Z,1.60
2019-02-27T14:30:28.404Z,2.47
2019-02-27T14:32:59.639Z,2.33
2019-02-27T14:35:35.240Z,3.50
2019-02-27T14:38:04.151Z,1.27
2019-02-27T14:40:39.500Z,4.08
2019-02-27T14:43:08.685Z,1.67
2019-02-27T14:45:41.045Z,2.00
2019-02-27T14:48:12.446Z,0.90
2019-02-27T14:50:43.730Z,2.40
2019-02-27T14:53:16.526Z,2.75
2019-02-27T14:55:47.884Z,1.22
2019-02-27T14:58:19.164Z,2.95
2019-02-27T15:00:51.025Z,1.32
2019-02-27T15:03:22.141Z,3.47
2019-02-27T15:05:53.487Z,2.12
2019-02-27T15:08:26.043Z,1.70
2019-02-27T15:10:57.386Z,7.78
2019-02-27T15:13:29.013Z,3.45
2019-02-27T15:16:00.164Z,2.62
2019-02-27T15:18:31.409Z,1.55
2019-02-27T15:21:02.785Z,2.22
2019-02-27T15:23:34.011Z,2.75
2019-02-27T15:26:05.586Z,3.40
2019-02-27T15:28:38.259Z,1.95
2019-02-27T15:31:09.484Z,1.37
2019-02-27T15:33:40.997Z,2.17
2019-02-27T15:36:13.123Z,2.58
2019-02-27T15:38:46.121Z,2.02
2019-02-27T15:41:17.459Z,1.55
2019-02-27T15:43:57.395Z,2.17
2019-02-27T15:46:22.558Z,1.30
2019-02-27T15:48:54.025Z,1.27
2019-02-27T15:51:25.312Z,1.42
2019-02-27T15:53:56.491Z,1.35
2019-02-27T15:56:28.004Z,1.80
2019-02-27T15:58:59.329Z,1.67
2019-02-27T16:01:33.089Z,1.37
2019-02-27T16:04:04.543Z,1.90
2019-02-27T16:06:37.088Z,2.02
2019-02-27T16:09:10.249Z,1.47
2019-02-27T16:11:43.193Z,1.50
2019-02-27T16:14:14.299Z,2.95
2019-02-27T16:16:47.538Z,2.35
2019-02-27T16:19:18.224Z,2.85
2019-02-27T16:21:49.878Z,2.22
2019-02-27T16:24:21.036Z,3.22
2019-02-27T16:26:52.334Z,2.40
2019-02-27T16:29:23.704Z,4.50
2019-02-27T16:31:54.946Z,3.85
2019-02-27T16:34:32.655Z,2.40
2019-02-27T16:36:59.249Z,3.65
2019-02-27T16:39:30.900Z,3.72
2019-02-27T16:42:05.145Z,2.37
2019-02-27T16:44:35.804Z,3.00
2019-02-27T16:47:06.997Z,4.00
2019-02-27T16:49:38.500Z,4.00
2019-02-27T16:52:09.806Z,3.87
2019-02-27T16:54:40.901Z,4.20
2019-02-27T16:57:12.027Z,2.85
2019-02-27T16:59:45.291Z,3.10
2019-02-27T17:02:17.393Z,3.60
2019-02-27T17:04:48.491Z,4.90
2019-02-27T17:07:19.615Z,3.58
2019-02-27T17:09:50.798Z,4.30
2019-02-27T17:12:22.256Z,2.80
2019-02-27T17:14:55.454Z,6.75
2019-02-27T17:17:26.665Z,8.33
2019-02-27T17:19:59.325Z,5.42
2019-02-27T17:22:33.335Z,5.53
2019-02-27T17:25:04.129Z,5.80
2019-02-27T17:27:35.501Z,6.80
2019-02-27T17:30:15.421Z,7.30
2019-02-27T17:32:47.271Z,7.97
2019-02-27T17:35:20.464Z,6.90
2019-02-27T17:37:53.960Z,10.28
2019-02-27T17:40:25.117Z,9.55
2019-02-27T17:42:56.376Z,8.88
2019-02-27T17:45:28.325Z,9.10
2019-02-27T17:47:59.551Z,6.83
2019-02-27T17:50:32.309Z,9.00
2019-02-27T17:53:03.986Z,7.90
2019-02-27T17:55:35.234Z,9.73
2019-02-27T17:58:06.810Z,8.73
2019-02-27T18:00:40.425Z,6.75
2019-02-27T18:03:12.044Z,7.90
2019-02-27T18:05:43.701Z,6.50
2019-02-27T18:08:16.283Z,6.92
2019-02-27T18:10:48.340Z,7.53
2019-02-27T18:13:20.132Z,6.92
2019-02-27T18:15:53.255Z,7.62
2019-02-27T18:18:24.466Z,7.33
2019-02-27T18:20:56.831Z,6.20
2019-02-27T18:23:29.577Z,5.37
2019-02-27T18:26:00.769Z,7.72
2019-02-27T18:28:33.714Z,7.67
2019-02-27T18:31:05.434Z,10.90
2019-02-27T18:33:36.782Z,6.10
2019-02-27T18:36:07.965Z,5.83
2019-02-27T18:38:39.152Z,6.08
2019-02-27T18:41:10.439Z,6.80
2019-02-27T18:43:42.610Z,5.05
2019-02-27T18:46:13.887Z,5.33
2019-02-27T18:48:45.181Z,6.22
2019-02-27T18:51:16.778Z,10.10
2019-02-27T18:53:48.578Z,4.83
2019-02-27T18:56:19.862Z,7.65
2019-02-27T18:58:51.965Z,6.12
2019-02-27T19:01:24.405Z,7.05
2019-02-27T19:04:00.253Z,7.03
2019-02-27T19:06:28.979Z,5.72
2019-02-27T19:09:00.628Z,6.20
2019-02-27T19:11:33.161Z,8.08
2019-02-27T19:14:05.809Z,8.60
2019-02-27T19:16:37.950Z,9.03
2019-02-27T19:19:09.594Z,6.53
2019-02-27T19:21:40.854Z,8.93
2019-02-27T19:24:12.115Z,6.97
2019-02-27T19:26:44.371Z,8.43
2019-02-27T19:29:16.708Z,7.00
2019-02-27T19:31:48.376Z,7.33
2019-02-27T19:34:21.001Z,5.75
2019-02-27T19:36:52.615Z,5.00
2019-02-27T19:39:24.172Z,6.28
2019-02-27T19:41:55.296Z,6.80
2019-02-27T19:44:29.231Z,7.37
2019-02-27T19:46:59.434Z,5.30
2019-02-27T19:49:30.761Z,7.37
2019-02-27T19:52:03.288Z,5.28
2019-02-27T19:54:34.534Z,6.22
2019-02-27T19:57:08.444Z,7.17
2019-02-27T19:59:38.865Z,6.40
2019-02-27T20:02:10.340Z,8.33
2019-02-27T20:04:44.663Z,6.55
2019-02-27T20:07:15.481Z,7.47
2019-02-27T20:09:46.716Z,7.30
2019-02-27T20:12:18.260Z,7.28
2019-02-27T20:14:49.569Z,6.20
2019-02-27T20:17:20.765Z,7.70
2019-02-27T20:19:51.987Z,6.85
2019-02-27T20:22:23.317Z,6.40
2019-02-27T20:24:54.475Z,7.30
2019-02-27T20:27:26.887Z,8.73
2019-02-27T20:29:59.023Z,7.97
2019-02-27T20:32:30.382Z,6.12
2019-02-27T20:35:01.655Z,7.53
2019-02-27T20:37:34.014Z,6.55
2019-02-27T20:40:05.375Z,8.30
2019-02-27T20:42:37.214Z,6.42
2019-02-27T20:45:12.073Z,6.33
2019-02-27T20:47:44.007Z,7.65
2019-02-27T20:50:34.606Z,5.92
2019-02-27T20:52:59.689Z,7.35
2019-02-27T20:55:31.839Z,6.72
2019-02-27T20:58:03.360Z,8.75
2019-02-27T21:00:36.486Z,6.67
2019-02-27T21:03:07.666Z,7.70
2019-02-27T21:05:41.101Z,8.80
2019-02-27T21:08:11.725Z,5.87
2019-02-27T21:10:42.875Z,7.78
2019-02-27T21:13:16.068Z,8.23
2019-02-27T21:15:47.309Z,8.73
2019-02-27T21:18:18.867Z,7.12
2019-02-27T21:20:50.963Z,7.42
2019-02-27T21:23:23.596Z,7.80
2019-02-27T21:25:55.018Z,11.28
2019-02-27T21:28:26.298Z,18.57
2019-02-27T21:30:57.624Z,8.35
2019-02-27T21:33:28.901Z,8.10
2019-02-27T21:36:03.460Z,8.88
2019-02-27T21:38:33.376Z,7.87
2019-02-27T21:41:04.534Z,6.28
2019-02-27T21:43:35.718Z,7.97
2019-02-27T21:46:08.363Z,7.50
2019-02-27T21:48:41.202Z,8.08
2019-02-27T21:51:13.793Z,7.62
2019-02-27T21:53:46.641Z,7.78
2019-02-27T21:56:18.222Z,7.10
2019-02-27T21:58:50.096Z,7.75
2019-02-27T22:01:22.064Z,9.00
2019-02-27T22:03:53.887Z,9.25
2019-02-27T22:06:27.452Z,6.85
2019-02-27T22:08:58.272Z,7.50
2019-02-27T22:11:29.464Z,8.30
2019-02-27T22:14:00.628Z,7.83
2019-02-27T22:16:31.855Z,8.70
2019-02-27T22:19:04.009Z,9.70
2019-02-27T22:21:35.168Z,7.70
2019-02-27T22:24:06.375Z,7.95
2019-02-27T22:26:38.426Z,8.50
2019-02-27T22:29:09.994Z,9.93
2019-02-27T22:31:41.365Z,9.15
2019-02-27T22:34:12.585Z,7.30
2019-02-27T22:36:44.850Z,9.48
2019-02-27T22:39:16.186Z,8.78
2019-02-27T22:41:47.364Z,8.28
2019-02-27T22:44:18.432Z,8.48
2019-02-27T22:46:49.682Z,6.85
2019-02-27T22:49:20.804Z,8.78
2019-02-27T22:51:51.909Z,7.10
2019-02-27T22:54:23.111Z,12.75
2019-02-27T22:56:54.283Z,11.08
2019-02-27T22:59:25.538Z,8.63
2019-02-27T23:01:57.471Z,9.50
2019-02-27T23:04:29.979Z,8.43
2019-02-27T23:07:02.019Z,9.05
2019-02-27T23:09:33.497Z,8.75
2019-02-27T23:12:04.913Z,7.83
2019-02-27T23:14:36.034Z,8.23
2019-02-27T23:17:07.426Z,9.95
2019-02-27T23:19:39.010Z,9.60
2019-02-27T23:22:10.763Z,10.85
2019-02-27T23:24:43.912Z,8.95
2019-02-27T23:27:15.975Z,9.15
2019-02-27T23:29:47.119Z,10.32
2019-02-27T23:32:18.219Z,9.15
2019-02-27T23:34:49.558Z,7.42
2019-02-27T23:37:20.645Z,9.38
2019-02-27T23:39:51.759Z,9.93
2019-02-27T23:42:23.021Z,8.05
2019-02-27T23:44:54.242Z,9.35
2019-02-27T23:47:28.757Z,8.58
2019-02-27T23:49:59.238Z,10.23
2019-02-27T23:52:30.494Z,9.70
2019-02-27T23:55:01.767Z,9.55
2019-02-27T23:57:33.630Z,10.05
